createdAt,value
2022-12-06T00:00:34.240Z,8.30
2022-12-06T00:01:33.378Z,7.90
2022-12-06T00:02:33.401Z,7.80
2022-12-06T00:03:34.257Z,7.60
2022-12-06T00:04:34.112Z,8.30
2022-12-06T00:05:34.528Z,7.10
2022-12-06T00:06:34.178Z,8.90
2022-12-06T00:07:33.341Z,7.10
2022-12-06T00:08:34.240Z,8.10
2022-12-06T00:09:33.290Z,8.00
2022-12-06T00:10:33.273Z,8.60
2022-12-06T00:11:33.285Z,8.20
2022-12-06T00:12:33.192Z,8.90
2022-12-06T00:13:33.240Z,8.60
2022-12-06T00:14:33.402Z,8.70
2022-12-06T00:15:33.202Z,9.00
2022-12-06T00:16:33.352Z,9.20
2022-12-06T00:17:33.199Z,8.80
2022-12-06T00:18:33.230Z,8.90
2022-12-06T00:19:33.150Z,8.70
2022-12-06T00:20:33.442Z,8.60
2022-12-06T00:21:33.131Z,8.80
2022-12-06T00:22:33.117Z,9.20
2022-12-06T00:23:33.083Z,8.70
2022-12-06T00:24:33.080Z,9.20
2022-12-06T00:25:33.055Z,10.00
2022-12-06T00:26:33.184Z,9.70
2022-12-06T00:27:33.071Z,8.10
2022-12-06T00:28:33.005Z,9.40
2022-12-06T00:29:33.039Z,10.20
2022-12-06T00:30:33.001Z,9.20
2022-12-06T00:31:33.052Z,9.00
2022-12-06T00:32:32.985Z,9.30
2022-12-06T00:33:32.965Z,9.10
2022-12-06T00:34:32.982Z,8.60
2022-12-06T00:35:33.012Z,10.50
2022-12-06T00:36:32.941Z,8.70
2022-12-06T00:37:33.148Z,9.10
2022-12-06T00:38:33.131Z,11.20
2022-12-06T00:39:32.906Z,9.60
2022-12-06T00:40:32.883Z,10.70
2022-12-06T00:41:32.877Z,10.40
2022-12-06T00:42:32.856Z,10.70
2022-12-06T00:43:33.066Z,10.80
2022-12-06T00:44:32.852Z,11.60
2022-12-06T00:45:32.896Z,10.60
2022-12-06T00:46:32.921Z,10.70
2022-12-06T00:47:32.833Z,10.80
2022-12-06T00:48:33.102Z,12.10
2022-12-06T00:49:33.033Z,11.70
2022-12-06T00:50:32.758Z,12.00
2022-12-06T00:51:32.767Z,12.60
2022-12-06T00:52:33.103Z,10.90
2022-12-06T00:53:32.745Z,10.70
2022-12-06T00:54:32.757Z,12.20
2022-12-06T00:55:32.716Z,10.20
2022-12-06T00:56:32.716Z,11.70
2022-12-06T00:57:32.723Z,12.80
2022-12-06T00:58:32.707Z,12.10
2022-12-06T00:59:32.667Z,11.20
2022-12-06T01:00:32.637Z,10.90
2022-12-06T01:01:32.967Z,11.30
2022-12-06T01:02:32.618Z,12.00
2022-12-06T01:03:35.238Z,11.70
2022-12-06T01:04:32.806Z,10.60
2022-12-06T01:05:32.632Z,11.90
2022-12-06T01:06:32.568Z,12.30
2022-12-06T01:07:32.642Z,13.10
2022-12-06T01:08:32.578Z,12.10
2022-12-06T01:09:32.842Z,13.90
2022-12-06T01:10:32.528Z,12.90
2022-12-06T01:11:32.549Z,13.70
2022-12-06T01:12:32.535Z,13.60
2022-12-06T01:13:32.511Z,12.90
2022-12-06T01:14:32.507Z,14.10
2022-12-06T01:15:33.029Z,18.00
2022-12-06T01:16:32.757Z,16.10
2022-12-06T01:17:32.486Z,16.70
2022-12-06T01:18:32.477Z,16.10
2022-12-06T01:19:32.445Z,14.90
2022-12-06T01:20:32.410Z,13.00
2022-12-06T01:21:32.658Z,15.20
2022-12-06T01:22:32.650Z,17.00
2022-12-06T01:23:32.416Z,14.70
2022-12-06T01:24:32.372Z,14.20
2022-12-06T01:25:35.829Z,15.10
2022-12-06T01:26:32.707Z,15.80
2022-12-06T01:27:32.357Z,19.20
2022-12-06T01:28:32.330Z,16.10
2022-12-06T01:29:32.339Z,20.70
2022-12-06T01:30:32.367Z,15.30
2022-12-06T01:31:38.119Z,14.60
2022-12-06T01:32:33.308Z,18.00
2022-12-06T01:33:32.287Z,19.40
2022-12-06T01:34:32.495Z,21.90
2022-12-06T01:35:32.243Z,25.20
2022-12-06T01:36:32.272Z,18.80
2022-12-06T01:37:32.256Z,18.50
2022-12-06T01:38:32.231Z,17.30
2022-12-06T01:39:32.209Z,21.30
2022-12-06T01:40:32.424Z,20.60
2022-12-06T01:41:32.192Z,24.60
2022-12-06T01:42:32.192Z,18.00
2022-12-06T01:43:32.191Z,19.30
2022-12-06T01:44:32.143Z,19.60
2022-12-06T01:45:32.400Z,20.20
2022-12-06T01:46:32.210Z,20.50
2022-12-06T01:47:32.166Z,18.20
2022-12-06T01:48:32.094Z,19.90
2022-12-06T01:49:32.457Z,18.90
2022-12-06T01:50:32.064Z,21.70
2022-12-06T01:51:32.102Z,23.20
2022-12-06T01:52:32.044Z,14.70
2022-12-06T01:53:32.054Z,17.80
2022-12-06T01:54:32.030Z,17.50
2022-12-06T01:55:32.323Z,14.70
2022-12-06T01:56:32.021Z,18.40
2022-12-06T01:57:32.009Z,20.10
2022-12-06T01:58:32.685Z,16.30
2022-12-06T01:59:32.000Z,19.00
2022-12-06T02:00:31.955Z,20.70
2022-12-06T02:01:32.030Z,19.80
2022-12-06T02:02:31.957Z,19.90
2022-12-06T02:03:31.952Z,17.50
2022-12-06T02:04:32.143Z,21.80
2022-12-06T02:05:36.129Z,15.50
2022-12-06T02:06:32.884Z,15.80
2022-12-06T02:07:32.253Z,15.30
2022-12-06T02:08:31.868Z,16.20
2022-12-06T02:09:31.892Z,17.70
2022-12-06T02:10:31.874Z,17.70
2022-12-06T02:11:35.126Z,14.50
2022-12-06T02:12:31.837Z,17.40
2022-12-06T02:13:32.057Z,15.20
2022-12-06T02:14:31.823Z,15.70
2022-12-06T02:15:31.796Z,16.10
2022-12-06T02:16:38.862Z,15.90
2022-12-06T02:17:31.792Z,13.40
2022-12-06T02:18:32.133Z,15.70
2022-12-06T02:19:31.745Z,14.10
2022-12-06T02:20:31.752Z,15.80
2022-12-06T02:21:31.753Z,13.70
2022-12-06T02:22:31.907Z,13.60
2022-12-06T02:23:31.732Z,18.80
2022-12-06T02:24:31.668Z,15.10
2022-12-06T02:25:34.226Z,14.80
2022-12-06T02:26:31.675Z,14.00
2022-12-06T02:27:31.890Z,13.40
2022-12-06T02:28:31.626Z,15.70
2022-12-06T02:29:31.655Z,16.90
2022-12-06T02:30:31.711Z,16.50
2022-12-06T02:31:31.705Z,15.40
2022-12-06T02:32:32.564Z,15.50
2022-12-06T02:33:31.832Z,15.30
2022-12-06T02:34:33.543Z,15.30
2022-12-06T02:35:31.616Z,14.80
2022-12-06T02:36:31.566Z,15.90
2022-12-06T02:37:31.748Z,15.20
2022-12-06T02:38:31.535Z,16.60
2022-12-06T02:39:31.519Z,16.00
2022-12-06T02:40:31.488Z,15.90
2022-12-06T02:41:31.758Z,17.00
2022-12-06T02:42:31.468Z,14.50
2022-12-06T02:43:31.495Z,18.10
2022-12-06T02:44:31.475Z,14.30
2022-12-06T02:45:31.475Z,15.30
2022-12-06T02:46:31.794Z,16.30
2022-12-06T02:47:31.456Z,15.20
2022-12-06T02:48:31.658Z,17.00
2022-12-06T02:49:31.425Z,17.30
2022-12-06T02:50:31.729Z,16.80
2022-12-06T02:51:31.418Z,18.20
2022-12-06T02:52:31.360Z,16.10
2022-12-06T02:53:31.359Z,19.00
2022-12-06T02:54:31.542Z,16.10
2022-12-06T02:55:31.358Z,19.70
2022-12-06T02:56:31.311Z,17.30
2022-12-06T02:57:31.311Z,18.90
2022-12-06T02:58:31.282Z,20.50
2022-12-06T02:59:31.506Z,18.20
2022-12-06T03:00:31.637Z,20.40
2022-12-06T03:01:31.350Z,22.40
2022-12-06T03:02:31.298Z,19.70
2022-12-06T03:03:31.241Z,23.70
2022-12-06T03:04:31.220Z,23.20
2022-12-06T03:05:31.221Z,20.70
2022-12-06T03:06:31.577Z,20.90
2022-12-06T03:07:31.201Z,25.50
2022-12-06T03:08:31.171Z,22.10
2022-12-06T03:09:31.187Z,25.20
2022-12-06T03:10:31.151Z,21.60
2022-12-06T03:11:31.151Z,19.30
2022-12-06T03:12:31.353Z,28.80
2022-12-06T03:13:31.130Z,23.70
2022-12-06T03:14:31.339Z,30.70
2022-12-06T03:15:31.186Z,23.90
2022-12-06T03:16:31.091Z,24.50
2022-12-06T03:17:31.108Z,22.40
2022-12-06T03:18:31.057Z,23.20
2022-12-06T03:19:31.088Z,20.70
2022-12-06T03:20:31.389Z,20.80
2022-12-06T03:21:31.033Z,21.50
2022-12-06T03:22:34.426Z,23.80
2022-12-06T03:23:32.041Z,24.60
2022-12-06T03:24:30.984Z,22.20
2022-12-06T03:25:31.274Z,27.30
2022-12-06T03:26:30.964Z,23.50
2022-12-06T03:27:30.964Z,25.10
2022-12-06T03:28:30.971Z,26.20
2022-12-06T03:29:30.943Z,25.40
2022-12-06T03:30:30.915Z,23.10
2022-12-06T03:31:31.156Z,22.60
2022-12-06T03:32:30.904Z,25.50
2022-12-06T03:33:30.895Z,22.60
2022-12-06T03:34:30.901Z,22.60
2022-12-06T03:35:30.893Z,23.30
2022-12-06T03:36:30.885Z,26.00
2022-12-06T03:37:30.878Z,26.70
2022-12-06T03:38:31.216Z,28.10
2022-12-06T03:39:30.843Z,32.00
2022-12-06T03:40:30.805Z,26.90
2022-12-06T03:41:30.807Z,23.60
2022-12-06T03:42:31.012Z,21.90
2022-12-06T03:43:30.783Z,23.10
2022-12-06T03:44:30.792Z,29.80
2022-12-06T03:45:30.895Z,25.80
2022-12-06T03:46:30.810Z,24.90
2022-12-06T03:47:30.769Z,23.60
2022-12-06T03:48:30.928Z,23.10
2022-12-06T03:49:30.714Z,25.00
2022-12-06T03:50:30.687Z,20.70
2022-12-06T03:51:30.696Z,22.40
2022-12-06T03:52:30.694Z,22.70
2022-12-06T03:53:30.695Z,24.10
2022-12-06T03:54:30.949Z,31.70
2022-12-06T03:55:30.648Z,27.20
2022-12-06T03:56:30.646Z,19.60
2022-12-06T03:57:30.617Z,20.00
2022-12-06T03:58:30.624Z,24.80
2022-12-06T03:59:30.624Z,23.00
2022-12-06T04:00:30.617Z,20.40
2022-12-06T04:01:30.642Z,29.10
2022-12-06T04:02:30.548Z,25.60
2022-12-06T04:03:30.656Z,29.60
2022-12-06T04:04:30.855Z,21.60
2022-12-06T04:05:30.529Z,25.40
2022-12-06T04:06:30.502Z,26.80
2022-12-06T04:07:30.509Z,22.10
2022-12-06T04:08:30.487Z,28.30
2022-12-06T04:09:30.522Z,29.40
2022-12-06T04:10:30.509Z,37.90
2022-12-06T04:11:30.460Z,32.90
2022-12-06T04:12:30.460Z,40.80
2022-12-06T04:13:30.439Z,24.90
2022-12-06T04:14:30.437Z,34.50
2022-12-06T04:15:30.411Z,39.50
2022-12-06T04:16:30.673Z,40.10
2022-12-06T04:17:30.397Z,42.20
2022-12-06T04:18:30.399Z,55.30
2022-12-06T04:19:30.369Z,44.40
2022-12-06T04:20:30.485Z,36.80
2022-12-06T04:21:30.349Z,59.80
2022-12-06T04:22:30.323Z,40.30
2022-12-06T04:23:30.323Z,41.40
2022-12-06T04:24:30.301Z,82.50
2022-12-06T04:25:30.300Z,41.80
2022-12-06T04:26:30.528Z,53.20
2022-12-06T04:27:30.302Z,33.90
2022-12-06T04:28:30.252Z,39.40
2022-12-06T04:29:30.289Z,78.10
2022-12-06T04:30:30.231Z,35.40
2022-12-06T04:31:30.647Z,51.00
2022-12-06T04:32:30.231Z,106.10
2022-12-06T04:33:30.211Z,109.20
2022-12-06T04:34:30.213Z,42.60
2022-12-06T04:35:30.208Z,52.10
2022-12-06T04:36:30.193Z,68.30
2022-12-06T04:37:30.195Z,58.60
2022-12-06T04:38:30.359Z,103.80
2022-12-06T04:39:30.159Z,52.20
2022-12-06T04:40:30.139Z,85.80
2022-12-06T04:41:30.139Z,54.00
2022-12-06T04:42:30.119Z,58.30
2022-12-06T04:43:30.382Z,50.50
2022-12-06T04:44:30.089Z,45.70
2022-12-06T04:45:30.064Z,61.30
2022-12-06T04:46:30.145Z,72.60
2022-12-06T04:47:30.281Z,84.20
2022-12-06T04:48:30.050Z,51.40
2022-12-06T04:49:30.025Z,50.60
2022-12-06T04:50:30.028Z,51.80
2022-12-06T04:51:29.993Z,94.70
2022-12-06T04:52:35.244Z,96.40
2022-12-06T04:53:31.009Z,116.60
2022-12-06T04:54:29.981Z,84.90
2022-12-06T04:55:29.958Z,111.60
2022-12-06T04:56:29.934Z,57.80
2022-12-06T04:57:29.933Z,65.40
2022-12-06T04:58:30.032Z,77.00
2022-12-06T04:59:29.935Z,114.20
2022-12-06T05:00:29.911Z,71.20
2022-12-06T05:01:29.895Z,86.60
2022-12-06T05:02:29.856Z,99.60
2022-12-06T05:03:30.175Z,68.60
2022-12-06T05:04:29.861Z,108.90
2022-12-06T05:05:30.195Z,166.50
2022-12-06T05:06:29.817Z,113.40
2022-12-06T05:07:29.839Z,91.40
2022-12-06T05:08:29.787Z,96.90
2022-12-06T05:09:29.794Z,103.90
2022-12-06T05:10:30.436Z,74.60
2022-12-06T05:11:29.775Z,55.10
2022-12-06T05:12:29.763Z,55.50
2022-12-06T05:13:29.833Z,77.00
2022-12-06T05:14:29.727Z,55.20
2022-12-06T05:15:29.744Z,80.90
2022-12-06T05:16:29.965Z,71.60
2022-12-06T05:17:29.728Z,69.50
2022-12-06T05:18:29.711Z,82.60
2022-12-06T05:19:29.677Z,97.40
2022-12-06T05:20:29.648Z,76.80
2022-12-06T05:21:29.647Z,86.30
2022-12-06T05:22:29.839Z,62.60
2022-12-06T05:23:29.654Z,56.10
2022-12-06T05:24:29.607Z,54.20
2022-12-06T05:25:30.034Z,60.60
2022-12-06T05:26:29.588Z,96.10
2022-12-06T05:27:34.382Z,57.10
2022-12-06T05:28:30.588Z,98.20
2022-12-06T05:29:29.595Z,45.10
2022-12-06T05:30:29.539Z,51.70
2022-12-06T05:31:29.817Z,51.40
2022-12-06T05:32:29.537Z,56.20
2022-12-06T05:33:29.538Z,130.30
2022-12-06T05:34:29.488Z,49.60
2022-12-06T05:35:29.496Z,81.90
2022-12-06T05:36:29.501Z,75.00
2022-12-06T05:37:29.495Z,43.30
2022-12-06T05:38:29.485Z,46.10
2022-12-06T05:39:29.956Z,117.40
2022-12-06T05:40:29.430Z,58.50
2022-12-06T05:41:29.413Z,33.20
2022-12-06T05:42:29.420Z,72.30
2022-12-06T05:43:29.381Z,40.10
2022-12-06T05:44:29.626Z,66.30
2022-12-06T05:45:29.420Z,33.70
2022-12-06T05:46:29.461Z,43.10
2022-12-06T05:47:29.370Z,45.60
2022-12-06T05:48:29.345Z,40.60
2022-12-06T05:49:29.318Z,40.00
2022-12-06T05:50:29.756Z,50.90
2022-12-06T05:51:29.291Z,47.70
2022-12-06T05:52:29.300Z,43.10
2022-12-06T05:53:29.271Z,58.90
2022-12-06T05:54:29.472Z,40.30
2022-12-06T05:55:29.249Z,44.30
2022-12-06T05:56:29.251Z,42.30
2022-12-06T05:57:29.229Z,51.40
2022-12-06T05:58:29.221Z,40.20
2022-12-06T05:59:29.658Z,63.70
2022-12-06T06:00:29.230Z,47.90
2022-12-06T06:01:29.208Z,75.00
2022-12-06T06:02:29.318Z,41.00
2022-12-06T06:03:29.194Z,39.00
2022-12-06T06:04:29.161Z,73.50
2022-12-06T06:05:29.343Z,44.80
2022-12-06T06:06:29.332Z,65.90
2022-12-06T06:07:29.139Z,44.50
2022-12-06T06:08:29.114Z,55.00
2022-12-06T06:09:29.136Z,55.20
2022-12-06T06:10:29.118Z,68.80
2022-12-06T06:11:29.263Z,92.50
2022-12-06T06:12:29.093Z,78.90
2022-12-06T06:13:29.033Z,104.40
2022-12-06T06:14:29.359Z,61.00
2022-12-06T06:15:29.023Z,70.30
2022-12-06T06:16:29.131Z,79.40
2022-12-06T06:17:29.020Z,68.30
2022-12-06T06:18:29.020Z,45.50
2022-12-06T06:19:29.003Z,71.90
2022-12-06T06:20:29.493Z,61.70
2022-12-06T06:21:28.957Z,113.90
2022-12-06T06:22:28.982Z,101.40
2022-12-06T06:23:28.952Z,71.70
2022-12-06T06:24:29.156Z,73.20
2022-12-06T06:25:28.932Z,44.30
2022-12-06T06:26:29.132Z,70.40
2022-12-06T06:27:28.911Z,45.80
2022-12-06T06:28:28.904Z,57.10
2022-12-06T06:29:28.856Z,85.00
2022-12-06T06:30:28.882Z,82.30
2022-12-06T06:31:29.092Z,83.40
2022-12-06T06:32:28.836Z,74.60
2022-12-06T06:33:29.026Z,72.10
2022-12-06T06:34:28.835Z,71.20
2022-12-06T06:35:28.814Z,72.80
2022-12-06T06:36:29.157Z,95.70
2022-12-06T06:37:28.793Z,58.00
2022-12-06T06:38:28.793Z,75.50
2022-12-06T06:39:28.771Z,49.60
2022-12-06T06:40:28.779Z,56.00
2022-12-06T06:41:28.953Z,67.10
2022-12-06T06:42:28.716Z,52.50
2022-12-06T06:43:28.724Z,70.20
2022-12-06T06:44:28.723Z,74.10
2022-12-06T06:45:29.239Z,56.30
2022-12-06T06:46:28.823Z,48.80
2022-12-06T06:47:28.858Z,55.50
2022-12-06T06:48:28.673Z,74.60
2022-12-06T06:49:28.655Z,64.90
2022-12-06T06:50:28.628Z,84.30
2022-12-06T06:51:28.817Z,54.90
2022-12-06T06:52:28.616Z,60.40
2022-12-06T06:53:28.958Z,77.60
2022-12-06T06:54:28.588Z,84.20
2022-12-06T06:55:28.584Z,88.80
2022-12-06T06:56:29.281Z,36.50
2022-12-06T06:57:28.537Z,102.80
2022-12-06T06:58:28.566Z,63.30
2022-12-06T06:59:28.718Z,51.00
2022-12-06T07:00:28.545Z,75.60
2022-12-06T07:01:28.561Z,90.40
2022-12-06T07:02:28.559Z,85.30
2022-12-06T07:03:28.469Z,41.20
2022-12-06T07:04:28.467Z,60.40
2022-12-06T07:05:28.686Z,38.30
2022-12-06T07:06:28.450Z,42.80
2022-12-06T07:07:28.446Z,35.80
2022-12-06T07:08:28.449Z,38.80
2022-12-06T07:09:28.426Z,43.40
2022-12-06T07:10:28.618Z,64.20
2022-12-06T07:11:28.379Z,62.90
2022-12-06T07:12:28.398Z,44.40
2022-12-06T07:13:28.377Z,42.50
2022-12-06T07:14:28.382Z,34.70
2022-12-06T07:15:28.331Z,43.10
2022-12-06T07:16:28.571Z,47.50
2022-12-06T07:17:28.311Z,38.80
2022-12-06T07:18:28.338Z,42.90
2022-12-06T07:19:28.284Z,41.30
2022-12-06T07:20:28.316Z,38.50
2022-12-06T07:21:28.260Z,45.00
2022-12-06T07:22:28.471Z,35.10
2022-12-06T07:23:28.245Z,33.50
2022-12-06T07:24:28.268Z,36.20
2022-12-06T07:25:28.247Z,36.20
2022-12-06T07:26:28.223Z,30.80
2022-12-06T07:27:28.223Z,36.20
2022-12-06T07:28:28.220Z,34.40
2022-12-06T07:29:28.162Z,34.40
2022-12-06T07:30:28.172Z,29.10
2022-12-06T07:31:28.254Z,33.70
2022-12-06T07:32:28.177Z,28.40
2022-12-06T07:33:28.180Z,31.10
2022-12-06T07:34:28.125Z,34.40
2022-12-06T07:35:48.561Z,32.30
2022-12-06T07:36:29.141Z,36.90
2022-12-06T07:37:28.108Z,33.90
2022-12-06T07:38:28.110Z,32.70
2022-12-06T07:39:28.072Z,33.30
2022-12-06T07:40:56.282Z,45.50
2022-12-06T07:41:29.071Z,33.40
2022-12-06T07:42:28.063Z,35.30
2022-12-06T07:43:28.011Z,30.20
2022-12-06T07:44:28.017Z,30.20
2022-12-06T07:45:27.998Z,29.30
2022-12-06T07:46:28.337Z,31.40
2022-12-06T07:47:27.996Z,30.30
2022-12-06T07:48:27.972Z,33.20
2022-12-06T07:49:27.945Z,28.60
2022-12-06T07:50:27.974Z,31.90
2022-12-06T07:51:27.916Z,33.80
2022-12-06T07:52:28.075Z,27.50
2022-12-06T07:53:27.991Z,27.90
2022-12-06T07:54:27.922Z,29.20
2022-12-06T07:55:27.903Z,40.50
2022-12-06T07:56:27.902Z,49.90
2022-12-06T07:57:27.908Z,39.60
2022-12-06T07:58:27.882Z,30.00
2022-12-06T07:59:27.863Z,29.20
2022-12-06T08:00:27.857Z,29.50
2022-12-06T08:01:27.842Z,31.60
2022-12-06T08:02:27.833Z,32.60
2022-12-06T08:03:27.868Z,43.70
2022-12-06T08:04:27.866Z,29.50
2022-12-06T08:05:28.716Z,31.40
2022-12-06T08:06:27.784Z,37.60
2022-12-06T08:07:27.937Z,34.40
2022-12-06T08:08:29.006Z,46.00
2022-12-06T08:09:27.718Z,36.00
2022-12-06T08:10:27.874Z,29.90
2022-12-06T08:11:27.688Z,39.00
2022-12-06T08:12:27.725Z,37.60
2022-12-06T08:13:27.819Z,30.70
2022-12-06T08:14:27.695Z,38.60
2022-12-06T08:15:27.889Z,36.90
2022-12-06T08:16:27.704Z,33.10
2022-12-06T08:17:27.659Z,32.40
2022-12-06T08:18:34.639Z,27.60
2022-12-06T08:19:27.629Z,33.80
2022-12-06T08:20:27.630Z,44.90
2022-12-06T08:21:27.631Z,31.70
2022-12-06T08:22:27.606Z,35.20
2022-12-06T08:23:32.360Z,27.80
2022-12-06T08:24:28.577Z,26.70
2022-12-06T08:25:27.552Z,33.40
2022-12-06T08:26:27.559Z,27.20
2022-12-06T08:27:27.531Z,27.90
2022-12-06T08:28:27.538Z,25.70
2022-12-06T08:29:27.491Z,23.20
2022-12-06T08:30:27.500Z,22.20
2022-12-06T08:31:27.518Z,25.90
2022-12-06T08:32:27.464Z,27.60
2022-12-06T08:33:27.469Z,29.60
2022-12-06T08:34:27.468Z,29.30
2022-12-06T08:35:27.459Z,25.00
2022-12-06T08:36:27.442Z,25.60
2022-12-06T08:37:27.401Z,24.30
2022-12-06T08:38:27.395Z,27.90
2022-12-06T08:39:27.652Z,30.30
2022-12-06T08:40:27.410Z,31.40
2022-12-06T08:41:27.355Z,34.70
2022-12-06T08:42:27.364Z,38.40
2022-12-06T08:43:27.323Z,47.50
2022-12-06T08:44:27.357Z,29.90
2022-12-06T08:45:27.342Z,48.30
2022-12-06T08:46:27.348Z,33.10
2022-12-06T08:47:27.314Z,35.90
2022-12-06T08:48:27.314Z,32.10
2022-12-06T08:49:27.281Z,44.80
2022-12-06T08:50:27.282Z,40.00
2022-12-06T08:51:27.235Z,41.90
2022-12-06T08:52:27.234Z,43.60
2022-12-06T08:53:27.232Z,44.10
2022-12-06T08:54:27.233Z,45.70
2022-12-06T08:55:27.223Z,35.80
2022-12-06T08:56:27.193Z,53.50
2022-12-06T08:57:27.165Z,36.50
2022-12-06T08:58:27.168Z,49.50
2022-12-06T08:59:27.173Z,47.00
2022-12-06T09:00:27.398Z,35.20
2022-12-06T09:01:29.265Z,37.20
2022-12-06T09:02:28.125Z,37.20
2022-12-06T09:03:27.131Z,50.30
2022-12-06T09:04:27.147Z,35.10
2022-12-06T09:05:27.114Z,57.20
2022-12-06T09:06:27.277Z,41.90
2022-12-06T09:07:27.081Z,30.70
2022-12-06T09:08:27.085Z,30.70
2022-12-06T09:09:27.026Z,36.20
2022-12-06T09:10:27.078Z,42.40
2022-12-06T09:11:27.039Z,29.20
2022-12-06T09:12:27.034Z,41.20
2022-12-06T09:13:27.025Z,35.20
2022-12-06T09:14:27.034Z,36.40
2022-12-06T09:15:26.958Z,39.10
2022-12-06T09:16:27.026Z,36.40
2022-12-06T09:17:26.938Z,35.10
2022-12-06T09:18:26.977Z,30.50
2022-12-06T09:19:26.955Z,32.80
2022-12-06T09:20:26.946Z,31.00
2022-12-06T09:21:26.936Z,37.10
2022-12-06T09:22:26.899Z,40.30
2022-12-06T09:23:26.869Z,31.50
2022-12-06T09:24:26.893Z,37.00
2022-12-06T09:25:26.839Z,43.90
2022-12-06T09:26:27.085Z,31.20
2022-12-06T09:27:26.830Z,37.80
2022-12-06T09:28:26.829Z,38.50
2022-12-06T09:29:26.801Z,37.30
2022-12-06T09:30:27.155Z,37.30
2022-12-06T09:31:26.975Z,38.00
2022-12-06T09:32:26.806Z,34.10
2022-12-06T09:33:26.780Z,29.10
2022-12-06T09:34:26.804Z,28.70
2022-12-06T09:35:26.731Z,26.30
2022-12-06T09:36:26.754Z,24.40
2022-12-06T09:37:26.709Z,27.60
2022-12-06T09:38:26.735Z,26.30
2022-12-06T09:39:26.710Z,29.70
2022-12-06T09:40:26.727Z,27.50
2022-12-06T09:41:26.663Z,22.60
2022-12-06T09:42:26.753Z,26.30
2022-12-06T09:43:26.642Z,28.40
2022-12-06T09:44:26.666Z,29.10
2022-12-06T09:45:26.639Z,30.10
2022-12-06T09:46:26.677Z,27.00
2022-12-06T09:47:26.592Z,23.80
2022-12-06T09:48:26.639Z,28.30
2022-12-06T09:49:26.601Z,24.60
2022-12-06T09:50:26.572Z,26.30
2022-12-06T09:51:26.564Z,25.20
2022-12-06T09:52:26.550Z,23.80
2022-12-06T09:53:26.523Z,24.40
2022-12-06T09:54:26.677Z,26.60
2022-12-06T09:55:26.538Z,25.40
2022-12-06T09:56:26.520Z,22.50
2022-12-06T09:57:26.513Z,21.10
2022-12-06T09:58:26.472Z,22.50
2022-12-06T09:59:26.501Z,20.60
2022-12-06T10:00:26.453Z,19.80
2022-12-06T10:01:26.514Z,20.30
2022-12-06T10:02:26.480Z,20.60
2022-12-06T10:03:26.749Z,20.10
2022-12-06T10:04:26.400Z,20.80
2022-12-06T10:05:26.422Z,20.80
2022-12-06T10:06:26.402Z,20.30
2022-12-06T10:07:26.401Z,18.00
2022-12-06T10:08:26.487Z,18.70
2022-12-06T10:09:26.355Z,17.60
2022-12-06T10:10:26.352Z,19.60
2022-12-06T10:11:26.362Z,18.40
2022-12-06T10:12:26.306Z,15.60
2022-12-06T10:13:26.544Z,18.00
2022-12-06T10:14:26.496Z,19.80
2022-12-06T10:15:26.295Z,21.50
2022-12-06T10:16:26.384Z,19.50
2022-12-06T10:17:26.267Z,18.30
2022-12-06T10:18:26.262Z,21.20
2022-12-06T10:19:26.273Z,17.80
2022-12-06T10:20:26.609Z,19.10
2022-12-06T10:21:26.243Z,17.80
2022-12-06T10:22:26.198Z,19.30
2022-12-06T10:23:26.188Z,19.40
2022-12-06T10:24:26.169Z,18.50
2022-12-06T10:25:26.198Z,20.50
2022-12-06T10:26:26.148Z,21.30
2022-12-06T10:27:26.174Z,18.40
2022-12-06T10:28:26.118Z,18.60
2022-12-06T10:29:29.799Z,17.20
2022-12-06T10:30:26.100Z,18.00
2022-12-06T10:31:26.424Z,20.20
2022-12-06T10:32:26.109Z,20.10
2022-12-06T10:33:26.089Z,18.00
2022-12-06T10:34:26.086Z,18.70
2022-12-06T10:35:26.083Z,16.40
2022-12-06T10:36:26.056Z,18.20
2022-12-06T10:37:26.078Z,19.50
2022-12-06T10:38:26.010Z,19.20
2022-12-06T10:39:26.047Z,16.80
2022-12-06T10:40:26.031Z,16.90
2022-12-06T10:41:25.981Z,17.50
2022-12-06T10:42:25.962Z,21.30
2022-12-06T10:43:26.215Z,17.80
2022-12-06T10:44:25.993Z,14.50
2022-12-06T10:45:25.966Z,14.80
2022-12-06T10:46:25.978Z,16.80
2022-12-06T10:47:25.921Z,16.40
2022-12-06T10:48:25.891Z,16.20
2022-12-06T10:49:25.947Z,17.10
2022-12-06T10:50:25.879Z,14.40
2022-12-06T10:51:25.891Z,17.40
2022-12-06T10:52:25.862Z,13.90
2022-12-06T10:53:25.869Z,12.40
2022-12-06T10:54:25.897Z,14.60
2022-12-06T10:55:25.859Z,13.60
2022-12-06T10:56:25.852Z,13.30
2022-12-06T10:57:25.803Z,15.20
2022-12-06T10:58:25.830Z,12.50
2022-12-06T10:59:25.807Z,14.40
2022-12-06T11:00:25.760Z,14.20
2022-12-06T11:01:25.814Z,11.70
2022-12-06T11:02:25.929Z,10.80
2022-12-06T11:03:25.953Z,12.40
2022-12-06T11:04:25.704Z,10.80
2022-12-06T11:05:25.717Z,10.90
2022-12-06T11:06:25.721Z,11.90
2022-12-06T11:07:25.719Z,10.50
2022-12-06T11:08:25.702Z,10.60
2022-12-06T11:09:25.721Z,9.20
2022-12-06T11:10:25.672Z,8.90
2022-12-06T11:11:25.644Z,9.80
2022-12-06T11:12:31.011Z,8.70
2022-12-06T11:13:26.874Z,8.00
2022-12-06T11:14:25.623Z,9.00
2022-12-06T11:15:25.596Z,7.70
2022-12-06T11:16:25.707Z,10.50
2022-12-06T11:17:25.576Z,8.10
2022-12-06T11:18:25.573Z,7.00
2022-12-06T11:19:25.566Z,5.70
2022-12-06T11:20:25.546Z,7.10
2022-12-06T11:21:25.525Z,7.80
2022-12-06T11:22:25.509Z,6.60
2022-12-06T11:23:25.524Z,8.70
2022-12-06T11:24:25.482Z,8.30
2022-12-06T11:25:25.524Z,6.80
2022-12-06T11:26:25.483Z,8.50
2022-12-06T11:27:25.456Z,7.00
2022-12-06T11:28:25.694Z,8.20
2022-12-06T11:29:25.454Z,8.40
2022-12-06T11:30:25.408Z,7.10
2022-12-06T11:31:25.521Z,7.70
2022-12-06T11:32:25.414Z,7.50
2022-12-06T11:33:25.413Z,7.70
2022-12-06T11:34:25.570Z,7.00
2022-12-06T11:35:25.366Z,7.10
2022-12-06T11:36:25.364Z,7.20
2022-12-06T11:37:25.339Z,6.80
2022-12-06T11:38:25.309Z,8.10
2022-12-06T11:39:25.565Z,7.60
2022-12-06T11:40:25.318Z,8.20
2022-12-06T11:41:25.291Z,7.40
2022-12-06T11:42:25.270Z,6.20
2022-12-06T11:43:25.296Z,6.30
2022-12-06T11:44:25.250Z,9.00
2022-12-06T11:45:25.271Z,7.90
2022-12-06T11:46:25.341Z,8.00
2022-12-06T11:47:25.225Z,7.10
2022-12-06T11:48:25.200Z,7.80
2022-12-06T11:49:25.229Z,7.70
2022-12-06T11:50:25.218Z,7.50
2022-12-06T11:51:25.239Z,6.80
2022-12-06T11:52:25.162Z,6.90
2022-12-06T11:53:25.184Z,8.70
2022-12-06T11:54:25.160Z,6.10
2022-12-06T11:55:25.131Z,7.80
2022-12-06T11:56:25.440Z,8.10
2022-12-06T11:57:25.113Z,8.70
2022-12-06T11:58:25.120Z,8.20
2022-12-06T11:59:25.082Z,6.60
2022-12-06T12:00:25.095Z,7.30
2022-12-06T12:01:25.064Z,6.90
2022-12-06T12:02:25.330Z,5.80
2022-12-06T12:03:25.102Z,7.30
2022-12-06T12:04:25.019Z,7.50
2022-12-06T12:05:25.023Z,6.60
2022-12-06T12:06:24.995Z,6.10
2022-12-06T12:07:25.004Z,6.00
2022-12-06T12:08:29.691Z,6.90
2022-12-06T12:09:25.974Z,7.00
2022-12-06T12:10:24.979Z,6.80
2022-12-06T12:11:24.972Z,8.40
2022-12-06T12:12:24.950Z,7.90
2022-12-06T12:13:25.179Z,6.10
2022-12-06T12:14:24.897Z,6.70
2022-12-06T12:15:24.933Z,6.70
2022-12-06T12:16:24.957Z,7.70
2022-12-06T12:17:25.106Z,6.20
2022-12-06T12:18:24.884Z,8.10
2022-12-06T12:19:25.056Z,6.30
2022-12-06T12:20:24.853Z,7.40
2022-12-06T12:21:24.863Z,7.60
2022-12-06T12:22:24.833Z,7.30
2022-12-06T12:23:24.806Z,7.60
2022-12-06T12:24:24.813Z,6.60
2022-12-06T12:25:25.051Z,5.90
2022-12-06T12:26:24.783Z,5.60
2022-12-06T12:27:28.553Z,7.60
2022-12-06T12:28:24.738Z,8.20
2022-12-06T12:29:24.764Z,6.30
2022-12-06T12:30:24.723Z,8.70
2022-12-06T12:31:25.355Z,7.80
2022-12-06T12:32:24.715Z,6.90
2022-12-06T12:33:24.722Z,9.00
2022-12-06T12:34:24.881Z,8.80
2022-12-06T12:35:24.669Z,6.70
2022-12-06T12:36:24.676Z,7.20
2022-12-06T12:37:24.649Z,7.10
2022-12-06T12:38:24.623Z,7.10
2022-12-06T12:39:24.655Z,6.20
2022-12-06T12:40:24.822Z,7.40
2022-12-06T12:41:24.634Z,7.90
2022-12-06T12:42:24.597Z,9.60
2022-12-06T12:43:24.584Z,8.60
2022-12-06T12:44:40.211Z,7.90
2022-12-06T12:45:25.795Z,9.10
2022-12-06T12:46:24.756Z,7.70
2022-12-06T12:47:24.558Z,7.00
2022-12-06T12:48:24.541Z,7.60
2022-12-06T12:49:24.513Z,9.30
2022-12-06T12:50:24.517Z,8.80
2022-12-06T12:51:25.061Z,7.90
2022-12-06T12:52:24.499Z,9.30
2022-12-06T12:53:24.670Z,7.80
2022-12-06T12:54:24.469Z,8.70
2022-12-06T12:55:24.468Z,8.90
2022-12-06T12:56:24.457Z,7.90